Time;durP1;ratioP1;P1;durP2;ratioP2;P2;SDS_P1;SDS_P2;PMS_P1;PMS_P2;Temp;Humidity;BMP_temperature;BMP_pressure;BME280_temperature;BME280_humidity;BME280_pressure;Samples;Min_cycle;Max_cycle;Signal;HPM_P1;HPM_P2
2021/07/24 00:00:24;;;;;;;4.47;4.10;;;25.40;47.90;;;;;;5023328;28;20515;-74
2021/07/24 00:02:52;;;;;;;4.60;4.20;;;25.40;47.90;;;;;;5023405;28;20418;-74
2021/07/24 00:05:20;;;;;;;4.17;3.87;;;25.40;48.00;;;;;;5024267;28;20473;-74
2021/07/24 00:07:47;;;;;;;5.20;4.70;;;25.40;48.00;;;;;;5024321;28;20669;-74
2021/07/24 00:10:15;;;;;;;7.80;4.67;;;25.30;47.90;;;;;;5023897;28;20461;-73
2021/07/24 00:12:43;;;;;;;4.33;3.93;;;25.30;48.00;;;;;;5023725;28;20414;-73
2021/07/24 00:15:15;;;;;;;4.30;4.00;;;25.30;48.00;;;;;;5023629;28;20407;-74
2021/07/24 00:17:42;;;;;;;4.63;4.20;;;25.20;47.90;;;;;;5023756;28;20489;-74
2021/07/24 00:20:12;;;;;;;4.70;4.30;;;25.30;48.00;;;;;;5024085;28;20471;-75
2021/07/24 00:22:39;;;;;;;4.87;4.43;;;25.20;47.90;;;;;;5023666;28;20475;-74
2021/07/24 00:25:11;;;;;;;4.43;4.10;;;25.20;48.00;;;;;;5019443;28;20495;-73
2021/07/24 00:27:41;;;;;;;4.57;3.90;;;25.20;48.00;;;;;;5024853;28;20416;-74
2021/07/24 00:30:09;;;;;;;4.70;4.30;;;25.10;48.00;;;;;;5027597;28;20503;-74
2021/07/24 00:32:39;;;;;;;4.80;4.40;;;25.10;47.90;;;;;;5027001;28;20475;-74
2021/07/24 00:35:08;;;;;;;4.73;4.17;;;25.10;47.90;;;;;;5027837;28;20473;-75
2021/07/24 00:37:35;;;;;;;4.50;4.00;;;25.10;48.00;;;;;;5027824;28;20501;-73
2021/07/24 00:40:04;;;;;;;4.67;4.27;;;25.00;47.90;;;;;;5027695;28;20450;-75
2021/07/24 00:42:32;;;;;;;4.27;3.93;;;25.00;47.90;;;;;;5027377;28;20453;-75
2021/07/24 00:45:02;;;;;;;5.03;4.53;;;25.00;48.00;;;;;;5027192;28;20506;-75
2021/07/24 00:47:33;;;;;;;4.53;4.13;;;25.00;47.90;;;;;;5027438;28;20482;-75
2021/07/24 00:50:02;;;;;;;4.67;3.90;;;24.90;47.90;;;;;;5026810;28;20540;-75
2021/07/24 00:52:30;;;;;;;4.67;4.17;;;24.90;47.90;;;;;;5026401;28;20414;-73
2021/07/24 00:54:59;;;;;;;4.47;4.07;;;24.90;47.90;;;;;;5026820;28;20470;-73
2021/07/24 00:57:26;;;;;;;4.33;4.03;;;24.90;48.00;;;;;;5027505;28;20526;-73
2021/07/24 00:59:54;;;;;;;6.47;4.30;;;24.90;47.90;;;;;;5026785;28;20459;-73
2021/07/24 01:02:22;;;;;;;4.13;3.83;;;24.90;47.80;;;;;;5026994;28;20467;-72
2021/07/24 01:04:50;;;;;;;4.43;4.03;;;24.90;47.90;;;;;;5027167;28;20414;-73
2021/07/24 01:07:21;;;;;;;5.17;4.20;;;24.90;47.90;;;;;;5026693;28;20518;-73
2021/07/24 01:09:50;;;;;;;4.63;4.23;;;24.80;47.80;;;;;;5027831;28;20457;-73
2021/07/24 01:12:26;;;;;;;4.53;4.13;;;24.80;47.90;;;;;;5029345;28;20497;-73
2021/07/24 01:14:54;;;;;;;5.50;4.40;;;24.80;47.90;;;;;;5027036;28;20504;-73
2021/07/24 01:17:22;;;;;;;4.80;4.40;;;24.80;47.90;;;;;;5026841;28;20507;-73
2021/07/24 01:19:50;;;;;;;4.33;3.93;;;24.80;48.40;;;;;;5026922;28;20459;-73
2021/07/24 01:22:19;;;;;;;4.30;3.90;;;24.70;47.70;;;;;;5026467;28;20481;-76
2021/07/24 01:24:47;;;;;;;5.63;4.57;;;24.70;47.80;;;;;;5026111;28;20418;-73
2021/07/24 01:27:15;;;;;;;4.33;4.03;;;24.70;47.80;;;;;;5026786;28;20438;-73
2021/07/24 01:29:44;;;;;;;4.40;4.00;;;24.70;47.80;;;;;;5026951;28;20470;-73
2021/07/24 01:32:11;;;;;;;4.47;4.07;;;24.70;47.70;;;;;;5026292;28;20501;-73
2021/07/24 01:34:39;;;;;;;4.50;4.10;;;24.70;47.70;;;;;;5026634;28;20508;-73
2021/07/24 01:37:07;;;;;;;3.93;3.63;;;24.60;47.70;;;;;;5026198;28;20472;-73
2021/07/24 01:39:36;;;;;;;4.27;3.87;;;24.60;47.70;;;;;;5021839;28;20442;-73
2021/07/24 01:42:05;;;;;;;4.50;4.10;;;24.60;47.70;;;;;;5026158;28;20443;-73
2021/07/24 01:44:36;;;;;;;4.70;4.30;;;24.60;47.70;;;;;;5026542;28;20418;-72
2021/07/24 01:47:04;;;;;;;5.30;4.23;;;24.60;47.70;;;;;;5025875;28;20531;-73
2021/07/24 01:55:07;;;;;;;4.03;3.73;;;24.50;47.70;;;;;;5025450;28;20515;-73
2021/07/24 01:57:35;;;;;;;4.40;4.10;;;24.50;47.70;;;;;;5025517;28;20450;-72
2021/07/24 02:00:09;;;;;;;3.63;3.40;;;24.50;47.60;;;;;;5025892;28;20505;-73
2021/07/24 02:02:37;;;;;;;3.90;3.70;;;24.40;47.60;;;;;;5025757;28;20422;-73
2021/07/24 02:05:05;;;;;;;4.43;4.03;;;24.40;47.50;;;;;;5025864;28;20497;-73
2021/07/24 02:07:36;;;;;;;4.37;3.97;;;24.40;47.60;;;;;;5025674;28;20499;-74
2021/07/24 02:10:05;;;;;;;4.13;3.73;;;24.40;47.50;;;;;;5025384;28;20423;-73
2021/07/24 02:12:35;;;;;;;4.20;3.90;;;24.40;47.60;;;;;;5024875;28;20469;-74
2021/07/24 02:15:02;;;;;;;4.70;4.30;;;24.30;47.60;;;;;;5026460;28;20527;-73
2021/07/24 02:17:32;;;;;;;4.73;4.30;;;24.40;47.60;;;;;;5024287;28;20451;-73
2021/07/24 02:19:59;;;;;;;5.03;4.57;;;24.40;47.60;;;;;;5024739;28;20410;-73
2021/07/24 02:22:27;;;;;;;4.23;3.93;;;24.30;47.60;;;;;;5030149;28;20453;-73
2021/07/24 02:24:55;;;;;;;4.10;3.80;;;24.30;47.50;;;;;;5040120;28;20474;-73
2021/07/24 02:27:23;;;;;;;4.50;4.10;;;24.30;47.50;;;;;;5031888;28;20513;-73
2021/07/24 02:29:52;;;;;;;4.50;4.10;;;24.30;47.60;;;;;;5037916;28;20452;-73
2021/07/24 02:32:20;;;;;;;4.10;3.80;;;24.30;47.60;;;;;;5036085;28;20543;-73
2021/07/24 02:34:48;;;;;;;4.30;4.00;;;24.30;47.50;;;;;;5034165;28;20518;-73
2021/07/24 02:37:16;;;;;;;4.67;4.27;;;24.20;47.40;;;;;;5013664;28;20432;-72
2021/07/24 02:39:44;;;;;;;4.40;4.00;;;24.20;47.50;;;;;;5023795;28;20482;-73
2021/07/24 02:42:14;;;;;;;4.63;4.23;;;24.20;47.40;;;;;;5023329;28;20438;-73
2021/07/24 02:44:41;;;;;;;4.00;3.70;;;24.20;47.30;;;;;;5023779;28;20538;-73
2021/07/24 02:47:11;;;;;;;4.40;4.10;;;24.20;47.40;;;;;;5024975;28;20465;-73
2021/07/24 02:49:39;;;;;;;4.30;3.90;;;24.10;47.30;;;;;;5024569;28;20474;-73
2021/07/24 02:52:07;;;;;;;3.80;3.53;;;24.10;47.40;;;;;;5023925;28;20481;-73
2021/07/24 02:54:35;;;;;;;4.10;3.80;;;24.10;47.30;;;;;;5024782;28;20546;-73
2021/07/24 02:57:03;;;;;;;4.10;3.80;;;24.10;47.40;;;;;;5025022;28;20546;-73
2021/07/24 02:59:31;;;;;;;3.90;3.60;;;24.10;47.30;;;;;;5024910;28;20509;-73
2021/07/24 03:01:59;;;;;;;3.97;3.67;;;24.10;47.30;;;;;;5024865;28;20513;-73
2021/07/24 03:04:28;;;;;;;4.10;3.80;;;24.00;47.20;;;;;;5025053;28;20410;-73
2021/07/24 03:06:56;;;;;;;4.80;4.40;;;24.00;47.20;;;;;;5024667;28;20402;-73
2021/07/24 03:09:24;;;;;;;4.27;3.87;;;24.10;47.20;;;;;;5024191;28;20455;-73
2021/07/24 03:11:52;;;;;;;3.67;3.37;;;24.00;47.30;;;;;;5024299;28;20445;-73
2021/07/24 03:14:19;;;;;;;3.93;3.63;;;24.00;47.40;;;;;;5024387;28;20479;-73
2021/07/24 03:16:47;;;;;;;4.27;3.97;;;23.90;47.20;;;;;;5024688;28;20431;-73
2021/07/24 03:19:15;;;;;;;4.30;3.90;;;23.90;47.30;;;;;;5023943;28;20447;-73
2021/07/24 03:21:45;;;;;;;4.40;4.07;;;23.90;47.20;;;;;;5024266;28;20470;-73
2021/07/24 03:24:12;;;;;;;5.73;4.20;;;23.90;47.30;;;;;;5024686;28;20451;-73
2021/07/24 03:26:40;;;;;;;3.87;3.57;;;23.80;47.30;;;;;;5024009;28;20514;-73
2021/07/24 03:29:08;;;;;;;4.53;4.13;;;23.80;47.40;;;;;;5024521;28;20443;-73
2021/07/24 03:31:36;;;;;;;5.03;4.53;;;23.80;47.40;;;;;;5024266;28;20486;-74
2021/07/24 03:34:04;;;;;;;5.43;4.87;;;23.80;47.30;;;;;;5024602;28;20410;-73
2021/07/24 03:36:32;;;;;;;4.70;4.30;;;23.80;47.10;;;;;;5024290;28;20452;-73
2021/07/24 03:39:01;;;;;;;4.77;4.37;;;23.80;47.20;;;;;;5024069;28;20448;-73
2021/07/24 03:41:29;;;;;;;4.67;4.27;;;23.80;47.30;;;;;;5024587;28;20435;-73
2021/07/24 03:43:57;;;;;;;4.83;4.37;;;23.80;47.30;;;;;;5024561;28;20406;-73
2021/07/24 03:46:26;;;;;;;4.90;4.50;;;23.70;47.20;;;;;;5023613;28;20438;-73
2021/07/24 03:48:54;;;;;;;5.07;4.57;;;23.70;47.30;;;;;;5023796;28;20418;-73
2021/07/24 03:51:22;;;;;;;4.43;4.03;;;23.80;47.30;;;;;;5023748;28;20532;-73
2021/07/24 03:53:50;;;;;;;5.27;4.70;;;23.80;47.10;;;;;;5023697;28;20537;-73
2021/07/24 03:56:20;;;;;;;4.87;4.40;;;23.70;47.10;;;;;;5023634;28;20541;-73
2021/07/24 03:58:50;;;;;;;4.53;4.13;;;23.70;47.10;;;;;;5023875;28;20476;-73
2021/07/24 04:01:20;;;;;;;5.17;4.67;;;23.70;47.10;;;;;;5021565;28;20554;-73
2021/07/24 04:03:48;;;;;;;4.90;4.37;;;23.80;47.20;;;;;;5026922;28;20542;-74
2021/07/24 04:06:20;;;;;;;4.43;3.90;;;23.70;47.00;;;;;;5033880;28;20477;-74
2021/07/24 04:08:48;;;;;;;4.83;4.33;;;23.70;47.20;;;;;;5030829;28;20478;-74
2021/07/24 04:11:15;;;;;;;4.50;4.13;;;23.70;47.20;;;;;;5027703;28;20452;-74
2021/07/24 04:13:44;;;;;;;4.33;4.00;;;23.60;47.20;;;;;;5028010;28;20530;-74
2021/07/24 04:16:12;;;;;;;4.60;4.30;;;23.60;47.20;;;;;;5027154;28;20535;-74
2021/07/24 04:18:40;;;;;;;4.30;4.00;;;23.70;47.20;;;;;;5028152;28;20426;-74
2021/07/24 04:21:08;;;;;;;4.50;4.10;;;23.60;47.10;;;;;;5026912;28;20527;-74
2021/07/24 04:23:36;;;;;;;4.90;3.90;;;23.60;47.10;;;;;;5026436;28;20536;-74
2021/07/24 04:26:04;;;;;;;5.67;4.40;;;23.70;47.10;;;;;;5028016;28;20446;-74
2021/07/24 04:28:31;;;;;;;4.10;3.73;;;23.70;47.00;;;;;;5027320;28;20478;-74
2021/07/24 04:31:03;;;;;;;3.60;3.40;;;23.70;47.00;;;;;;5008310;28;20502;-74
2021/07/24 04:33:34;;;;;;;3.93;3.60;;;23.60;47.00;;;;;;5007721;28;20475;-74
2021/07/24 04:36:02;;;;;;;3.90;3.60;;;23.60;47.00;;;;;;5007788;28;20415;-74
2021/07/24 04:38:30;;;;;;;4.47;4.07;;;23.60;47.10;;;;;;5007521;28;20472;-74
2021/07/24 04:40:58;;;;;;;4.83;4.33;;;23.60;46.90;;;;;;5007984;28;20474;-74
2021/07/24 04:43:26;;;;;;;4.17;3.87;;;23.60;46.90;;;;;;5007649;28;20463;-74
2021/07/24 04:45:53;;;;;;;4.10;3.80;;;23.60;46.90;;;;;;5009450;28;20440;-74
2021/07/24 04:48:23;;;;;;;4.47;4.07;;;23.60;46.80;;;;;;5027303;28;20432;-74
2021/07/24 04:50:52;;;;;;;4.80;4.40;;;23.60;46.90;;;;;;5027695;28;20533;-74
2021/07/24 04:53:20;;;;;;;4.50;4.10;;;23.60;46.90;;;;;;5026794;28;20541;-74
2021/07/24 04:55:48;;;;;;;4.50;4.20;;;23.60;46.70;;;;;;5026918;28;20505;-74
2021/07/24 04:58:16;;;;;;;4.27;3.97;;;23.60;46.80;;;;;;5025599;28;20530;-74
2021/07/24 05:00:45;;;;;;;4.67;4.20;;;23.60;46.80;;;;;;5026186;28;20474;-73
2021/07/24 05:03:13;;;;;;;4.40;4.03;;;23.60;46.70;;;;;;5025683;28;20450;-73
2021/07/24 05:05:42;;;;;;;4.20;3.90;;;23.60;46.70;;;;;;5025706;28;20414;-73
2021/07/24 05:08:11;;;;;;;4.40;4.00;;;23.60;46.70;;;;;;5025742;28;20454;-73
2021/07/24 05:10:39;;;;;;;4.30;3.97;;;23.60;46.60;;;;;;5025615;28;20505;-73
2021/07/24 05:13:07;;;;;;;4.33;4.03;;;23.70;46.70;;;;;;5024878;28;20475;-73
2021/07/24 05:15:35;;;;;;;4.50;4.10;;;23.70;46.50;;;;;;5025639;28;20515;-73
2021/07/24 05:18:03;;;;;;;4.23;3.90;;;23.70;46.60;;;;;;5025534;28;20515;-73
2021/07/24 05:20:31;;;;;;;4.30;3.93;;;23.70;46.50;;;;;;5025590;28;20431;-73
2021/07/24 05:23:00;;;;;;;4.00;3.70;;;23.70;46.50;;;;;;5024487;28;20436;-73
2021/07/24 05:25:28;;;;;;;4.90;4.50;;;23.70;46.60;;;;;;5025723;28;20546;-73
2021/07/24 05:27:58;;;;;;;4.60;4.20;;;23.70;46.40;;;;;;5025499;28;20535;-73
2021/07/24 05:30:26;;;;;;;5.00;4.47;;;23.70;46.20;;;;;;5025511;28;20447;-73
2021/07/24 05:32:53;;;;;;;5.67;4.20;;;23.80;46.50;;;;;;5024933;28;20503;-73
2021/07/24 05:35:22;;;;;;;4.47;4.10;;;23.80;46.20;;;;;;5025227;28;20555;-73
2021/07/24 05:37:50;;;;;;;3.83;3.63;;;23.80;46.20;;;;;;5025107;28;20442;-73
2021/07/24 05:40:19;;;;;;;4.30;4.00;;;23.80;46.10;;;;;;5024433;28;20536;-73
2021/07/24 05:42:47;;;;;;;4.10;3.80;;;23.80;46.10;;;;;;5025422;28;20478;-74
2021/07/24 05:45:15;;;;;;;4.70;4.30;;;23.90;46.20;;;;;;5025290;28;20409;-74
2021/07/24 05:47:42;;;;;;;4.90;4.50;;;23.90;46.10;;;;;;5025531;28;20460;-73
2021/07/24 05:50:11;;;;;;;3.60;3.40;;;23.90;46.00;;;;;;5025124;28;20515;-74
2021/07/24 05:52:40;;;;;;;4.70;4.30;;;23.90;46.00;;;;;;5024269;28;20509;-74
2021/07/24 05:55:08;;;;;;;4.20;3.90;;;23.90;45.90;;;;;;5025071;28;20535;-74
2021/07/24 05:57:38;;;;;;;5.00;4.50;;;24.00;45.80;;;;;;4989659;28;1046819;-74
2021/07/24 06:00:08;;;;;;;4.13;3.83;;;24.00;45.80;;;;;;5026105;28;20232;-74
2021/07/24 06:02:36;;;;;;;4.20;3.90;;;24.10;45.90;;;;;;5026017;28;20474;-74
2021/07/24 06:05:05;;;;;;;4.83;4.43;;;24.00;45.70;;;;;;5025838;28;20463;-74
2021/07/24 06:07:33;;;;;;;4.47;4.07;;;24.10;45.90;;;;;;5026206;28;20436;-74
2021/07/24 06:10:01;;;;;;;4.20;3.83;;;24.10;45.70;;;;;;5025923;28;20429;-74
2021/07/24 06:12:28;;;;;;;3.77;3.47;;;24.10;45.80;;;;;;5025694;28;20475;-74
2021/07/24 06:14:58;;;;;;;4.70;4.30;;;24.10;45.70;;;;;;5024939;28;20418;-74
2021/07/24 06:17:25;;;;;;;4.10;3.80;;;24.20;45.60;;;;;;5025731;28;20560;-74
2021/07/24 06:19:53;;;;;;;4.60;4.20;;;24.20;45.50;;;;;;5025199;28;20530;-74
2021/07/24 06:22:21;;;;;;;4.17;3.87;;;24.20;45.50;;;;;;5024853;28;20482;-73
2021/07/24 06:24:49;;;;;;;4.23;3.93;;;24.20;46.20;;;;;;5024865;28;20466;-74
2021/07/24 06:27:17;;;;;;;3.97;3.77;;;24.30;45.60;;;;;;5025433;28;20514;-73
2021/07/24 06:29:45;;;;;;;4.43;4.13;;;24.40;45.40;;;;;;5025493;28;20471;-73
2021/07/24 06:32:14;;;;;;;5.03;4.57;;;24.40;45.40;;;;;;5025471;28;20442;-73
2021/07/24 06:34:42;;;;;;;5.47;4.50;;;24.50;45.20;;;;;;5025494;28;20560;-73
2021/07/24 06:37:10;;;;;;;4.00;3.70;;;24.50;45.40;;;;;;5025273;28;20516;-74
2021/07/24 06:39:40;;;;;;;3.70;3.50;;;24.50;45.30;;;;;;5025674;28;20519;-74
2021/07/24 06:42:09;;;;;;;4.70;4.40;;;24.60;45.30;;;;;;5025266;28;20422;-73
2021/07/24 06:44:36;;;;;;;4.00;3.70;;;24.70;45.20;;;;;;5021048;28;20462;-74
2021/07/24 06:47:05;;;;;;;4.50;4.10;;;24.70;45.20;;;;;;5015950;28;20486;-73
2021/07/24 06:49:34;;;;;;;3.90;3.70;;;24.80;45.20;;;;;;5015617;28;20440;-73
2021/07/24 06:52:02;;;;;;;4.43;4.13;;;24.80;45.00;;;;;;5014751;28;20543;-73
2021/07/24 06:54:30;;;;;;;4.80;4.40;;;24.90;45.20;;;;;;5013825;28;20442;-73
2021/07/24 06:56:58;;;;;;;4.00;3.70;;;24.90;45.10;;;;;;5013783;28;20526;-74
2021/07/24 06:59:26;;;;;;;4.20;3.97;;;25.00;45.10;;;;;;5014390;28;20436;-73
2021/07/24 07:01:54;;;;;;;4.10;3.67;;;25.10;45.00;;;;;;5015832;28;20435;-74
2021/07/24 07:04:22;;;;;;;4.20;3.90;;;25.10;44.80;;;;;;5014394;28;20433;-73
2021/07/24 07:06:51;;;;;;;4.00;3.70;;;25.20;44.80;;;;;;5014202;28;20474;-74
2021/07/24 07:09:19;;;;;;;3.90;3.70;;;25.20;44.80;;;;;;5013145;28;20512;-74
2021/07/24 07:11:47;;;;;;;3.97;3.60;;;25.30;44.70;;;;;;5012456;28;20461;-74
2021/07/24 07:14:20;;;;;;;4.70;4.00;;;25.40;45.20;;;;;;5004832;28;20446;-74
2021/07/24 07:16:48;;;;;;;4.07;3.87;;;25.50;44.60;;;;;;5005521;28;20429;-74
2021/07/24 07:19:16;;;;;;;4.93;4.27;;;25.60;44.60;;;;;;5024498;28;20439;-74
2021/07/24 07:21:44;;;;;;;3.93;3.63;;;25.70;44.40;;;;;;5024244;28;20497;-74
2021/07/24 07:24:13;;;;;;;4.50;4.20;;;25.80;44.50;;;;;;5024638;28;20427;-74
2021/07/24 07:26:42;;;;;;;4.30;4.00;;;25.90;44.50;;;;;;5024269;28;20492;-74
2021/07/24 07:29:10;;;;;;;4.30;3.97;;;25.90;44.60;;;;;;5024109;28;20446;-74
2021/07/24 07:31:38;;;;;;;4.80;4.40;;;26.00;44.40;;;;;;5023932;28;20518;-74
2021/07/24 07:34:06;;;;;;;4.43;4.03;;;26.20;44.40;;;;;;5033072;28;20474;-74
2021/07/24 07:36:34;;;;;;;4.40;4.00;;;26.30;44.20;;;;;;5022407;28;20422;-74
2021/07/24 07:39:02;;;;;;;7.37;4.20;;;26.40;44.20;;;;;;5023263;28;20450;-74
2021/07/24 07:41:31;;;;;;;4.80;4.40;;;26.50;44.30;;;;;;5026944;28;20520;-74
2021/07/24 07:43:59;;;;;;;4.30;4.00;;;26.60;44.20;;;;;;5018445;28;20464;-74
2021/07/24 07:46:27;;;;;;;3.80;3.60;;;26.70;44.00;;;;;;5018327;28;20463;-74
2021/07/24 07:48:55;;;;;;;3.83;3.60;;;26.90;44.00;;;;;;5012378;28;20406;-74
2021/07/24 07:51:23;;;;;;;4.67;4.23;;;27.00;43.90;;;;;;5014648;28;20472;-73
2021/07/24 07:53:51;;;;;;;4.30;4.00;;;27.10;44.00;;;;;;5015348;28;20468;-73
2021/07/24 07:56:19;;;;;;;3.67;3.47;;;27.20;44.00;;;;;;5014400;28;20461;-73
2021/07/24 07:58:48;;;;;;;4.53;4.13;;;27.30;44.00;;;;;;5014332;28;20439;-73
2021/07/24 08:01:16;;;;;;;4.00;3.80;;;27.40;43.90;;;;;;5014171;28;20414;-73
2021/07/24 08:03:44;;;;;;;4.43;4.10;;;27.60;44.00;;;;;;5015059;28;20414;-74
2021/07/24 08:06:12;;;;;;;4.33;4.03;;;27.70;43.80;;;;;;5014949;28;20418;-73
2021/07/24 08:08:40;;;;;;;4.10;3.80;;;27.80;43.80;;;;;;5012223;28;20443;-73
2021/07/24 08:11:08;;;;;;;4.77;4.33;;;27.90;43.80;;;;;;5006501;28;20460;-74
2021/07/24 08:13:37;;;;;;;4.27;4.00;;;28.10;43.80;;;;;;5015146;28;20486;-74
2021/07/24 08:16:13;;;;;;;4.60;4.30;;;28.20;43.80;;;;;;5015428;28;20444;-73
2021/07/24 08:18:41;;;;;;;3.50;3.30;;;28.40;43.70;;;;;;5015062;28;20429;-73
2021/07/24 08:21:09;;;;;;;4.67;4.27;;;28.50;43.70;;;;;;5012694;28;20488;-73
2021/07/24 08:23:37;;;;;;;3.93;3.63;;;28.70;43.60;;;;;;5015891;28;20425;-73
2021/07/24 08:26:05;;;;;;;4.40;4.00;;;28.80;43.60;;;;;;5015963;28;20461;-74
2021/07/24 08:28:33;;;;;;;4.00;3.70;;;28.90;43.50;;;;;;5017974;28;20438;-73
2021/07/24 08:31:01;;;;;;;4.23;3.90;;;29.10;43.40;;;;;;5022047;28;20439;-74
2021/07/24 08:33:30;;;;;;;4.30;4.00;;;29.20;43.30;;;;;;5029017;28;20406;-74
2021/07/24 08:35:58;;;;;;;3.67;3.47;;;29.40;43.40;;;;;;5023636;28;20447;-75
2021/07/24 08:38:26;;;;;;;4.83;4.33;;;29.50;43.30;;;;;;5023278;28;20422;-74
2021/07/24 08:40:54;;;;;;;4.37;3.97;;;29.70;43.30;;;;;;5023595;28;20513;-74
2021/07/24 08:43:22;;;;;;;4.30;4.00;;;29.80;43.20;;;;;;5023651;28;20416;-74
2021/07/24 08:45:49;;;;;;;3.97;3.67;;;30.00;43.20;;;;;;5023535;28;20517;-74
2021/07/24 08:48:17;;;;;;;4.00;3.80;;;30.10;43.10;;;;;;5024064;28;20443;-73
2021/07/24 08:50:47;;;;;;;4.40;4.10;;;30.30;43.10;;;;;;5024355;28;20517;-75
2021/07/24 08:53:17;;;;;;;4.17;3.87;;;30.40;43.00;;;;;;5021573;28;20431;-75
2021/07/24 08:55:45;;;;;;;4.47;3.60;;;30.60;43.00;;;;;;5018557;28;20473;-74
2021/07/24 08:58:14;;;;;;;3.63;3.43;;;30.70;42.90;;;;;;5015805;28;20449;-74
2021/07/24 09:00:43;;;;;;;3.90;3.70;;;30.90;42.90;;;;;;5016542;28;20432;-74
2021/07/24 09:03:19;;;;;;;4.03;3.73;;;31.00;42.70;;;;;;5013592;28;20628;-75
2021/07/24 09:05:50;;;;;;;3.50;3.30;;;31.20;42.60;;;;;;5014111;28;20435;-75
2021/07/24 09:08:19;;;;;;;4.00;3.80;;;31.30;42.60;;;;;;5016661;28;20432;-77
2021/07/24 09:10:47;;;;;;;3.70;3.50;;;31.50;42.60;;;;;;5015813;28;20535;-74
2021/07/24 09:13:16;;;;;;;3.60;3.37;;;31.60;42.40;;;;;;5017044;28;20513;-77
2021/07/24 09:15:44;;;;;;;3.93;3.73;;;31.80;42.50;;;;;;5015338;28;20472;-76
2021/07/24 09:18:11;;;;;;;3.70;3.50;;;31.90;42.40;;;;;;5015492;28;20456;-76
2021/07/24 09:20:41;;;;;;;4.50;4.20;;;32.10;42.40;;;;;;5012520;28;20523;-77
2021/07/24 09:23:26;;;;;;;4.07;3.83;;;32.20;42.30;;;;;;5007302;28;20558;-76
2021/07/24 09:25:54;;;;;;;3.90;3.70;;;32.40;42.30;;;;;;5007074;28;20436;-76
2021/07/24 09:28:24;;;;;;;3.73;3.53;;;32.50;42.10;;;;;;5007315;28;20420;-76
2021/07/24 09:30:52;;;;;;;4.00;3.70;;;32.70;42.00;;;;;;5013310;28;20447;-76
2021/07/24 09:33:21;;;;;;;3.67;3.33;;;32.80;41.90;;;;;;5026533;28;20451;-76
2021/07/24 09:36:00;;;;;;;3.70;3.50;;;33.00;41.80;;;;;;5026744;28;20477;-76
2021/07/24 09:38:30;;;;;;;3.33;3.20;;;33.20;41.70;;;;;;5027257;28;20447;-76
2021/07/24 09:41:00;;;;;;;3.40;3.20;;;33.30;41.60;;;;;;5020466;28;20445;-76
2021/07/24 09:43:30;;;;;;;3.53;3.33;;;33.50;41.60;;;;;;5014692;28;20428;-75
2021/07/24 09:46:08;;;;;;;3.53;3.30;;;33.60;41.40;;;;;;5012712;28;20432;-75
2021/07/24 09:48:37;;;;;;;3.83;3.63;;;33.80;41.30;;;;;;5006986;28;20458;-75
2021/07/24 09:51:05;;;;;;;3.23;3.03;;;34.00;41.10;;;;;;5009654;28;20519;-75
2021/07/24 09:53:38;;;;;;;3.30;3.10;;;34.10;41.10;;;;;;5026898;28;20443;-75
2021/07/24 09:56:06;;;;;;;3.10;2.90;;;34.30;41.00;;;;;;5026705;28;20475;-75
2021/07/24 09:58:34;;;;;;;3.87;3.47;;;34.50;40.90;;;;;;5026363;28;20489;-75
2021/07/24 10:01:04;;;;;;;3.10;3.00;;;34.60;40.80;;;;;;5016136;28;20487;-75
2021/07/24 10:03:35;;;;;;;3.20;3.00;;;34.80;40.70;;;;;;5006602;28;20451;-75
2021/07/24 10:06:10;;;;;;;5.53;3.40;;;34.50;40.00;;;;;;5006289;28;20448;-76
2021/07/24 10:08:40;;;;;;;4.23;3.93;;;34.70;39.40;;;;;;5006292;28;20480;-76
2021/07/24 10:11:08;;;;;;;4.60;3.80;;;34.90;39.20;;;;;;5005728;28;20479;-75
2021/07/24 10:13:38;;;;;;;11.93;3.57;;;35.00;39.70;;;;;;5006350;28;20475;-76
2021/07/24 10:16:06;;;;;;;3.30;2.90;;;35.00;39.00;;;;;;5006426;28;20494;-75
2021/07/24 10:18:34;;;;;;;4.97;3.60;;;35.00;38.90;;;;;;5040970;28;20516;-76
2021/07/24 10:21:03;;;;;;;3.53;3.20;;;35.10;39.00;;;;;;5035267;28;20430;-76
2021/07/24 10:23:33;;;;;;;4.10;3.63;;;35.10;39.00;;;;;;5025690;28;20486;-76
2021/07/24 10:26:07;;;;;;;3.30;3.00;;;35.10;38.90;;;;;;5022868;28;20511;-76
2021/07/24 10:28:37;;;;;;;3.80;3.50;;;35.10;38.90;;;;;;5025358;28;20447;-76
2021/07/24 10:31:08;;;;;;;3.53;3.07;;;35.20;38.80;;;;;;5026036;28;20497;-76
2021/07/24 10:33:36;;;;;;;3.33;3.10;;;35.20;38.80;;;;;;5025432;28;20453;-76
2021/07/24 10:36:14;;;;;;;3.83;3.40;;;35.20;38.80;;;;;;5024963;28;20477;-75
2021/07/24 10:38:59;;;;;;;7.57;3.20;;;35.30;39.30;;;;;;5025895;28;20548;-76
2021/07/24 10:41:44;;;;;;;3.80;3.23;;;35.30;38.70;;;;;;5025056;28;20435;-76
2021/07/24 10:44:13;;;;;;;4.20;3.77;;;35.30;39.30;;;;;;5025334;28;20449;-76
2021/07/24 10:47:11;;;;;;;9.33;3.73;;;35.20;38.70;;;;;;5025433;28;20530;-76
2021/07/24 10:50:04;;;;;;;3.50;3.20;;;35.20;38.90;;;;;;5025213;28;20518;-76
2021/07/24 10:53:09;;;;;;;6.07;3.20;;;35.10;39.00;;;;;;5025030;28;20471;-76
2021/07/24 10:55:41;;;;;;;2.90;2.70;;;35.10;39.10;;;;;;5025042;28;20570;-75
2021/07/24 10:58:10;;;;;;;10.60;3.67;;;35.20;39.00;;;;;;5025208;28;20442;-76
2021/07/24 11:00:51;;;;;;;3.67;3.37;;;35.30;38.80;;;;;;5025641;28;20534;-76
2021/07/24 11:03:33;;;;;;;3.80;3.60;;;35.40;38.70;;;;;;5024645;28;20435;-76
2021/07/24 11:06:01;;;;;;;4.33;3.40;;;35.50;38.60;;;;;;5025054;28;20427;-76
2021/07/24 11:09:14;;;;;;;3.30;3.00;;;35.60;38.50;;;;;;5025143;28;20607;-75
2021/07/24 11:11:43;;;;;;;4.80;3.03;;;35.70;38.40;;;;;;5024245;28;20451;-76
2021/07/24 11:14:57;;;;;;;4.13;3.20;;;35.80;38.30;;;;;;5024697;28;20576;-76
2021/07/24 11:17:27;;;;;;;3.60;3.30;;;35.90;38.30;;;;;;5024853;28;20501;-76
2021/07/24 11:20:35;;;;;;;4.00;3.60;;;35.80;38.20;;;;;;5024900;28;20431;-76
2021/07/24 11:23:07;;;;;;;5.07;3.50;;;36.00;38.10;;;;;;5024633;28;20439;-75
2021/07/24 11:25:39;;;;;;;4.23;3.83;;;36.00;38.80;;;;;;5024697;28;20428;-76
2021/07/24 11:28:07;;;;;;;3.73;3.43;;;36.00;38.00;;;;;;5024235;28;20526;-76
2021/07/24 11:30:35;;;;;;;3.73;3.40;;;36.10;38.00;;;;;;5024108;28;20459;-75
2021/07/24 11:33:07;;;;;;;3.67;3.40;;;36.20;37.90;;;;;;5024266;28;20431;-76
2021/07/24 11:35:39;;;;;;;3.90;3.60;;;36.20;37.80;;;;;;5023735;28;20478;-76
2021/07/24 11:38:23;;;;;;;3.90;3.50;;;36.30;37.80;;;;;;5024276;28;20524;-76
2021/07/24 11:41:15;;;;;;;4.30;3.23;;;36.30;37.70;;;;;;5024388;28;20455;-76
2021/07/24 11:43:43;;;;;;;3.53;3.27;;;36.40;37.80;;;;;;5013956;28;20602;-76
2021/07/24 11:46:12;;;;;;;4.33;3.93;;;36.40;37.70;;;;;;5024087;28;20445;-76
2021/07/24 11:48:42;;;;;;;5.27;3.93;;;36.50;37.60;;;;;;5024328;28;20507;-75
2021/07/24 11:51:11;;;;;;;4.10;3.73;;;36.60;37.50;;;;;;5023908;28;20435;-75
2021/07/24 11:53:40;;;;;;;3.50;3.20;;;36.70;37.50;;;;;;5024362;28;20445;-76
2021/07/24 11:56:12;;;;;;;10.77;3.70;;;36.60;38.10;;;;;;5023516;28;20475;-76
2021/07/24 11:58:41;;;;;;;5.23;4.00;;;36.70;37.60;;;;;;5023914;28;20435;-75
2021/07/24 12:01:21;;;;;;;6.23;4.50;;;36.80;37.50;;;;;;5023569;28;20467;-76
2021/07/24 12:04:04;;;;;;;4.20;3.70;;;36.80;37.50;;;;;;5023855;28;20447;-76
2021/07/24 12:06:32;;;;;;;8.97;4.30;;;36.90;37.40;;;;;;5023768;28;20443;-76
2021/07/24 12:09:00;;;;;;;6.23;4.00;;;36.90;37.40;;;;;;5023611;28;20439;-76
2021/07/24 12:11:28;;;;;;;4.00;3.70;;;36.90;37.30;;;;;;5023460;28;20471;-76
2021/07/24 12:14:02;;;;;;;4.40;4.00;;;36.90;37.40;;;;;;5023685;28;20468;-76
2021/07/24 12:16:35;;;;;;;4.77;3.97;;;37.00;37.30;;;;;;5023759;28;20471;-76
2021/07/24 12:19:13;;;;;;;4.77;3.80;;;37.10;37.30;;;;;;5023898;28;20439;-76
2021/07/24 12:21:41;;;;;;;3.80;3.50;;;37.10;37.30;;;;;;5023389;28;20486;-76
2021/07/24 12:24:09;;;;;;;5.50;4.40;;;37.00;37.20;;;;;;5025136;28;20448;-77
2021/07/24 12:26:38;;;;;;;4.13;3.83;;;37.10;37.30;;;;;;5027724;28;20534;-76
2021/07/24 12:29:22;;;;;;;7.27;3.73;;;37.10;37.30;;;;;;5027395;28;20470;-76
2021/07/24 12:31:50;;;;;;;4.10;3.70;;;37.20;37.30;;;;;;5026911;28;20445;-75
2021/07/24 12:34:20;;;;;;;5.17;4.10;;;37.20;37.30;;;;;;5027017;28;20517;-75
2021/07/24 12:36:52;;;;;;;9.37;4.67;;;37.20;37.30;;;;;;5026997;28;20480;-75
2021/07/24 12:39:21;;;;;;;4.07;3.67;;;37.20;37.20;;;;;;5026783;28;20467;-76
2021/07/24 12:41:59;;;;;;;5.40;4.17;;;37.20;37.20;;;;;;5027224;28;20502;-75
2021/07/24 12:44:27;;;;;;;6.47;4.17;;;37.20;37.30;;;;;;5027125;28;20443;-75
2021/07/24 12:47:11;;;;;;;3.73;3.40;;;37.20;37.30;;;;;;5027075;28;20499;-75
2021/07/24 12:49:42;;;;;;;4.40;4.00;;;37.10;38.00;;;;;;5027470;28;20432;-75
2021/07/24 12:52:35;;;;;;;9.20;4.90;;;37.20;37.50;;;;;;5027210;28;20565;-75
2021/07/24 12:55:05;;;;;;;4.67;4.20;;;37.20;37.40;;;;;;5012810;28;20471;-75
2021/07/24 12:57:33;;;;;;;5.60;4.20;;;37.30;37.50;;;;;;5027005;28;20558;-75
2021/07/24 13:00:02;;;;;;;4.80;4.23;;;37.20;37.40;;;;;;5026916;28;20569;-75
2021/07/24 13:02:30;;;;;;;6.40;4.23;;;37.10;37.40;;;;;;5026602;28;20546;-75
2021/07/24 13:04:59;;;;;;;5.10;3.70;;;37.10;37.50;;;;;;5026827;28;20455;-75